Terminal Aerodrome Forecast
Issued by NWS Portland, ME

Home | Current Version | Previous Version | Text Only | Print | Product List | Glossary On
Versions: 1 2 3 4 5 6 7 8 9 10 11 12 13 14 15 16 17 18 19 20 21 22
824
FTUS41 KGYX 020532
TAFCON
TAF
KCON 020532Z 0206/0306 VRB03KT P6SM OVC015
     FM021000 VRB03KT P6SM BKN008 OVC015
     FM021200 06003KT 4SM -DZ BR OVC007
     FM021500 07004KT 2SM RA BR OVC007
     FM030100 36003KT P6SM SCT007 BKN025=

USA.gov is the U.S. government's official web portal to all federal, state and local government web resources and services.